sensor_id;sensor_type;location;lat;lon;timestamp;temperature;humidity
72591;SHT31;60625;51.212;5.952;2022-09-12T00:04:35;15.43;78.11
72591;SHT31;60625;51.212;5.952;2022-09-12T00:09:37;15.44;78.00
72591;SHT31;60625;51.212;5.952;2022-09-12T00:14:38;15.33;78.25
72591;SHT31;60625;51.212;5.952;2022-09-12T00:19:39;15.39;78.20
72591;SHT31;60625;51.212;5.952;2022-09-12T00:24:39;15.39;77.87
72591;SHT31;60625;51.212;5.952;2022-09-12T00:29:40;15.19;78.20
72591;SHT31;60625;51.212;5.952;2022-09-12T00:34:40;15.01;78.58
72591;SHT31;60625;51.212;5.952;2022-09-12T00:39:41;14.97;78.79
72591;SHT31;60625;51.212;5.952;2022-09-12T00:44:42;15.07;78.64
72591;SHT31;60625;51.212;5.952;2022-09-12T00:49:48;15.21;78.00
72591;SHT31;60625;51.212;5.952;2022-09-12T00:55:02;15.17;78.08
72591;SHT31;60625;51.212;5.952;2022-09-12T01:00:11;15.04;78.35
72591;SHT31;60625;51.212;5.952;2022-09-12T01:05:18;15.06;78.44
72591;SHT31;60625;51.212;5.952;2022-09-12T01:10:21;15.12;78.51
72591;SHT31;60625;51.212;5.952;2022-09-12T01:15:22;15.14;78.32
72591;SHT31;60625;51.212;5.952;2022-09-12T01:31:32;14.78;78.88
72591;SHT31;60625;51.212;5.952;2022-09-12T01:47:39;14.69;78.75
72591;SHT31;60625;51.212;5.952;2022-09-12T01:52:46;14.53;79.19
72591;SHT31;60625;51.212;5.952;2022-09-12T01:57:57;14.54;79.00
72591;SHT31;60625;51.212;5.952;2022-09-12T02:03:48;14.61;78.96
72591;SHT31;60625;51.212;5.952;2022-09-12T02:09:16;14.67;78.68
72591;SHT31;60625;51.212;5.952;2022-09-12T02:14:23;14.66;78.75
72591;SHT31;60625;51.212;5.952;2022-09-12T02:19:28;14.50;78.92
72591;SHT31;60625;51.212;5.952;2022-09-12T02:24:37;14.46;78.79
72591;SHT31;60625;51.212;5.952;2022-09-12T02:29:42;14.47;78.76
72591;SHT31;60625;51.212;5.952;2022-09-12T02:34:50;14.46;78.90
72591;SHT31;60625;51.212;5.952;2022-09-12T02:40:08;14.50;78.79
72591;SHT31;60625;51.212;5.952;2022-09-12T02:45:09;14.56;78.64
72591;SHT31;60625;51.212;5.952;2022-09-12T02:50:11;14.44;78.99
72591;SHT31;60625;51.212;5.952;2022-09-12T02:55:12;14.37;79.14
72591;SHT31;60625;51.212;5.952;2022-09-12T03:00:14;14.30;79.34
72591;SHT31;60625;51.212;5.952;2022-09-12T03:05:23;14.38;79.13
72591;SHT31;60625;51.212;5.952;2022-09-12T03:10:59;14.44;79.13
72591;SHT31;60625;51.212;5.952;2022-09-12T03:16:33;14.37;79.33
72591;SHT31;60625;51.212;5.952;2022-09-12T03:22:02;14.22;79.57
72591;SHT31;60625;51.212;5.952;2022-09-12T03:27:12;14.13;79.71
72591;SHT31;60625;51.212;5.952;2022-09-12T03:32:18;13.99;79.98
72591;SHT31;60625;51.212;5.952;2022-09-12T03:37:19;13.99;79.83
72591;SHT31;60625;51.212;5.952;2022-09-12T03:42:19;13.96;79.60
72591;SHT31;60625;51.212;5.952;2022-09-12T03:47:20;14.02;79.83
72591;SHT31;60625;51.212;5.952;2022-09-12T03:52:21;14.13;79.61
72591;SHT31;60625;51.212;5.952;2022-09-12T03:57:22;14.14;79.71
72591;SHT31;60625;51.212;5.952;2022-09-12T04:02:22;14.08;79.97
72591;SHT31;60625;51.212;5.952;2022-09-12T04:07:23;14.08;79.99
72591;SHT31;60625;51.212;5.952;2022-09-12T04:12:23;14.16;80.00
72591;SHT31;60625;51.212;5.952;2022-09-12T04:17:24;14.20;80.13
72591;SHT31;60625;51.212;5.952;2022-09-12T04:22:24;14.15;80.38
72591;SHT31;60625;51.212;5.952;2022-09-12T04:27:25;14.17;80.50
72591;SHT31;60625;51.212;5.952;2022-09-12T04:32:27;14.22;80.45
72591;SHT31;60625;51.212;5.952;2022-09-12T04:37:30;14.23;80.16
72591;SHT31;60625;51.212;5.952;2022-09-12T04:42:30;14.18;80.26
72591;SHT31;60625;51.212;5.952;2022-09-12T04:47:31;14.13;80.58
72591;SHT31;60625;51.212;5.952;2022-09-12T04:52:31;14.03;80.92
72591;SHT31;60625;51.212;5.952;2022-09-12T04:57:32;14.07;81.58
72591;SHT31;60625;51.212;5.952;2022-09-12T05:02:33;14.17;81.59
72591;SHT31;60625;51.212;5.952;2022-09-12T05:07:33;14.37;81.70
72591;SHT31;60625;51.212;5.952;2022-09-12T05:12:34;14.54;81.49
72591;SHT31;60625;51.212;5.952;2022-09-12T05:17:36;14.62;81.20
72591;SHT31;60625;51.212;5.952;2022-09-12T05:22:36;14.66;81.20
72591;SHT31;60625;51.212;5.952;2022-09-12T05:27:37;14.76;81.08
72591;SHT31;60625;51.212;5.952;2022-09-12T05:32:37;14.91;80.75
72591;SHT31;60625;51.212;5.952;2022-09-12T05:37:38;14.91;80.81
72591;SHT31;60625;51.212;5.952;2022-09-12T05:42:39;14.91;81.00
72591;SHT31;60625;51.212;5.952;2022-09-12T05:47:39;14.92;81.07
72591;SHT31;60625;51.212;5.952;2022-09-12T05:52:41;14.99;80.96
72591;SHT31;60625;51.212;5.952;2022-09-12T05:57:44;15.04;81.08
72591;SHT31;60625;51.212;5.952;2022-09-12T06:02:50;15.05;81.32
72591;SHT31;60625;51.212;5.952;2022-09-12T06:07:52;15.19;81.11
72591;SHT31;60625;51.212;5.952;2022-09-12T06:12:52;15.34;80.72
72591;SHT31;60625;51.212;5.952;2022-09-12T06:17:53;15.51;80.39
72591;SHT31;60625;51.212;5.952;2022-09-12T06:22:53;15.64;80.13
72591;SHT31;60625;51.212;5.952;2022-09-12T06:27:54;15.73;79.97
72591;SHT31;60625;51.212;5.952;2022-09-12T06:32:55;15.77;80.05
72591;SHT31;60625;51.212;5.952;2022-09-12T06:37:56;15.90;79.82
72591;SHT31;60625;51.212;5.952;2022-09-12T06:42:56;16.03;79.47
72591;SHT31;60625;51.212;5.952;2022-09-12T06:48:06;16.08;79.24
72591;SHT31;60625;51.212;5.952;2022-09-12T06:53:06;16.13;79.11
72591;SHT31;60625;51.212;5.952;2022-09-12T06:58:07;16.18;79.19
72591;SHT31;60625;51.212;5.952;2022-09-12T07:03:08;16.32;78.94
72591;SHT31;60625;51.212;5.952;2022-09-12T07:08:09;16.43;78.65
72591;SHT31;60625;51.212;5.952;2022-09-12T07:13:09;16.40;78.51
72591;SHT31;60625;51.212;5.952;2022-09-12T07:18:10;16.41;78.93
72591;SHT31;60625;51.212;5.952;2022-09-12T07:23:11;16.45;79.03
72591;SHT31;60625;51.212;5.952;2022-09-12T07:28:11;16.50;78.89
72591;SHT31;60625;51.212;5.952;2022-09-12T07:33:12;16.61;78.57
72591;SHT31;60625;51.212;5.952;2022-09-12T07:38:12;16.84;78.32
72591;SHT31;60625;51.212;5.952;2022-09-12T07:43:13;17.08;77.98
72591;SHT31;60625;51.212;5.952;2022-09-12T07:48:14;17.28;77.75
72591;SHT31;60625;51.212;5.952;2022-09-12T07:53:15;17.46;77.36
72591;SHT31;60625;51.212;5.952;2022-09-12T07:58:16;17.61;76.93
72591;SHT31;60625;51.212;5.952;2022-09-12T08:03:16;17.78;76.47
72591;SHT31;60625;51.212;5.952;2022-09-12T08:08:17;17.99;76.25
72591;SHT31;60625;51.212;5.952;2022-09-12T08:13:18;18.16;76.19
72591;SHT31;60625;51.212;5.952;2022-09-12T08:18:19;18.35;75.36
72591;SHT31;60625;51.212;5.952;2022-09-12T08:23:20;18.51;75.10
72591;SHT31;60625;51.212;5.952;2022-09-12T08:28:25;18.77;74.57
72591;SHT31;60625;51.212;5.952;2022-09-12T08:33:27;18.97;73.93
72591;SHT31;60625;51.212;5.952;2022-09-12T08:38:32;19.22;73.44
72591;SHT31;60625;51.212;5.952;2022-09-12T08:43:40;19.51;72.96
72591;SHT31;60625;51.212;5.952;2022-09-12T08:49:04;19.78;72.07
72591;SHT31;60625;51.212;5.952;2022-09-12T08:54:20;20.12;71.18
72591;SHT31;60625;51.212;5.952;2022-09-12T08:59:26;20.39;69.89
72591;SHT31;60625;51.212;5.952;2022-09-12T09:04:36;20.56;69.71
72591;SHT31;60625;51.212;5.952;2022-09-12T09:15:16;21.01;68.64
72591;SHT31;60625;51.212;5.952;2022-09-12T09:21:00;21.07;67.40
72591;SHT31;60625;51.212;5.952;2022-09-12T09:31:50;21.77;65.89
72591;SHT31;60625;51.212;5.952;2022-09-12T09:37:00;22.14;64.93
72591;SHT31;60625;51.212;5.952;2022-09-12T09:47:44;22.84;63.54
72591;SHT31;60625;51.212;5.952;2022-09-12T09:52:50;23.01;62.65
72591;SHT31;60625;51.212;5.952;2022-09-12T09:57:53;22.95;61.92
72591;SHT31;60625;51.212;5.952;2022-09-12T10:03:05;22.95;61.83
72591;SHT31;60625;51.212;5.952;2022-09-12T10:08:10;23.20;60.94
72591;SHT31;60625;51.212;5.952;2022-09-12T10:13:29;23.47;60.10
72591;SHT31;60625;51.212;5.952;2022-09-12T10:18:57;23.75;59.31
72591;SHT31;60625;51.212;5.952;2022-09-12T10:29:27;24.36;57.99
72591;SHT31;60625;51.212;5.952;2022-09-12T10:34:35;24.42;57.13
72591;SHT31;60625;51.212;5.952;2022-09-12T10:40:05;24.53;56.72
72591;SHT31;60625;51.212;5.952;2022-09-12T10:45:18;24.70;56.74
72591;SHT31;60625;51.212;5.952;2022-09-12T10:55:27;25.16;55.28
72591;SHT31;60625;51.212;5.952;2022-09-12T11:00:34;25.35;54.92
72591;SHT31;60625;51.212;5.952;2022-09-12T11:05:58;25.54;54.59
72591;SHT31;60625;51.212;5.952;2022-09-12T11:16:49;26.00;52.51
72591;SHT31;60625;51.212;5.952;2022-09-12T11:33:43;26.38;50.74
72591;SHT31;60625;51.212;5.952;2022-09-12T11:39:07;26.51;50.15
72591;SHT31;60625;51.212;5.952;2022-09-12T11:55:09;26.68;49.72
72591;SHT31;60625;51.212;5.952;2022-09-12T12:11:14;26.58;49.43
72591;SHT31;60625;51.212;5.952;2022-09-12T12:16:37;26.49;49.67
72591;SHT31;60625;51.212;5.952;2022-09-12T12:21:41;26.51;49.28
72591;SHT31;60625;51.212;5.952;2022-09-12T12:47:39;27.28;47.60
72591;SHT31;60625;51.212;5.952;2022-09-12T12:57:58;27.11;47.55
72591;SHT31;60625;51.212;5.952;2022-09-12T13:08:06;26.77;47.97
72591;SHT31;60625;51.212;5.952;2022-09-12T13:18:44;26.91;47.72
72591;SHT31;60625;51.212;5.952;2022-09-12T13:29:23;27.13;48.06
72591;SHT31;60625;51.212;5.952;2022-09-12T13:34:26;27.26;47.17
72591;SHT31;60625;51.212;5.952;2022-09-12T13:39:55;27.14;47.21
72591;SHT31;60625;51.212;5.952;2022-09-12T13:45:31;27.25;47.20
72591;SHT31;60625;51.212;5.952;2022-09-12T13:50:42;27.27;46.72
72591;SHT31;60625;51.212;5.952;2022-09-12T13:55:57;27.27;46.66
72591;SHT31;60625;51.212;5.952;2022-09-12T14:06:08;27.47;46.46
72591;SHT31;60625;51.212;5.952;2022-09-12T14:11:17;27.64;45.92
72591;SHT31;60625;51.212;5.952;2022-09-12T14:16:24;27.63;46.06
72591;SHT31;60625;51.212;5.952;2022-09-12T14:26:34;27.58;45.28
72591;SHT31;60625;51.212;5.952;2022-09-12T14:31:39;27.54;44.81
72591;SHT31;60625;51.212;5.952;2022-09-12T14:41:58;27.57;45.52
72591;SHT31;60625;51.212;5.952;2022-09-12T14:47:22;27.51;45.44
72591;SHT31;60625;51.212;5.952;2022-09-12T14:52:32;27.53;45.42
72591;SHT31;60625;51.212;5.952;2022-09-12T14:57:37;27.69;45.63
72591;SHT31;60625;51.212;5.952;2022-09-12T15:02:43;27.63;45.97
72591;SHT31;60625;51.212;5.952;2022-09-12T15:18:04;27.30;45.87
72591;SHT31;60625;51.212;5.952;2022-09-12T15:23:06;27.23;46.47
72591;SHT31;60625;51.212;5.952;2022-09-12T15:28:34;27.16;47.00
72591;SHT31;60625;51.212;5.952;2022-09-12T15:33:35;27.18;46.25
72591;SHT31;60625;51.212;5.952;2022-09-12T15:38:35;27.09;46.38
72591;SHT31;60625;51.212;5.952;2022-09-12T15:43:36;27.07;47.14
72591;SHT31;60625;51.212;5.952;2022-09-12T15:48:36;27.18;46.03
72591;SHT31;60625;51.212;5.952;2022-09-12T15:53:38;27.30;45.22
72591;SHT31;60625;51.212;5.952;2022-09-12T15:58:39;27.36;44.93
72591;SHT31;60625;51.212;5.952;2022-09-12T16:03:39;27.34;44.49
72591;SHT31;60625;51.212;5.952;2022-09-12T16:08:41;27.37;44.74
72591;SHT31;60625;51.212;5.952;2022-09-12T16:13:41;27.41;44.76
72591;SHT31;60625;51.212;5.952;2022-09-12T16:18:42;27.27;44.67
72591;SHT31;60625;51.212;5.952;2022-09-12T16:23:43;27.12;44.41
72591;SHT31;60625;51.212;5.952;2022-09-12T16:28:47;26.98;44.88
72591;SHT31;60625;51.212;5.952;2022-09-12T16:33:57;26.92;45.05
72591;SHT31;60625;51.212;5.952;2022-09-12T16:38:58;26.84;45.35
72591;SHT31;60625;51.212;5.952;2022-09-12T16:43:58;26.62;45.63
72591;SHT31;60625;51.212;5.952;2022-09-12T16:48:59;26.40;45.38
72591;SHT31;60625;51.212;5.952;2022-09-12T16:53:59;26.25;46.26
72591;SHT31;60625;51.212;5.952;2022-09-12T16:59:01;26.16;46.49
72591;SHT31;60625;51.212;5.952;2022-09-12T17:04:03;26.01;48.29
72591;SHT31;60625;51.212;5.952;2022-09-12T17:09:03;25.71;52.55
72591;SHT31;60625;51.212;5.952;2022-09-12T17:14:05;25.35;53.47
72591;SHT31;60625;51.212;5.952;2022-09-12T17:19:10;25.03;54.81
72591;SHT31;60625;51.212;5.952;2022-09-12T17:24:16;24.69;55.03
72591;SHT31;60625;51.212;5.952;2022-09-12T17:29:18;24.42;55.58
72591;SHT31;60625;51.212;5.952;2022-09-12T17:34:19;24.23;56.12
72591;SHT31;60625;51.212;5.952;2022-09-12T17:39:20;24.03;56.54
72591;SHT31;60625;51.212;5.952;2022-09-12T17:44:20;23.83;56.88
72591;SHT31;60625;51.212;5.952;2022-09-12T17:49:23;23.67;57.46
72591;SHT31;60625;51.212;5.952;2022-09-12T17:54:24;23.54;57.92
72591;SHT31;60625;51.212;5.952;2022-09-12T17:59:26;23.37;58.44
72591;SHT31;60625;51.212;5.952;2022-09-12T18:04:27;23.13;58.80
72591;SHT31;60625;51.212;5.952;2022-09-12T18:09:29;22.91;59.42
72591;SHT31;60625;51.212;5.952;2022-09-12T18:14:29;22.72;60.34
72591;SHT31;60625;51.212;5.952;2022-09-12T18:19:30;22.47;60.88
72591;SHT31;60625;51.212;5.952;2022-09-12T18:24:31;22.25;62.96
72591;SHT31;60625;51.212;5.952;2022-09-12T18:29:32;22.09;63.24
72591;SHT31;60625;51.212;5.952;2022-09-12T18:34:33;22.03;62.82
72591;SHT31;60625;51.212;5.952;2022-09-12T18:39:34;22.04;62.38
72591;SHT31;60625;51.212;5.952;2022-09-12T18:44:36;22.02;62.72
72591;SHT31;60625;51.212;5.952;2022-09-12T18:49:37;21.94;63.40
72591;SHT31;60625;51.212;5.952;2022-09-12T18:54:37;21.84;64.06
72591;SHT31;60625;51.212;5.952;2022-09-12T18:59:38;21.73;64.57
72591;SHT31;60625;51.212;5.952;2022-09-12T19:04:38;21.67;65.00
72591;SHT31;60625;51.212;5.952;2022-09-12T19:09:40;21.53;65.13
72591;SHT31;60625;51.212;5.952;2022-09-12T19:14:41;21.51;65.15
72591;SHT31;60625;51.212;5.952;2022-09-12T19:19:41;21.56;65.46
72591;SHT31;60625;51.212;5.952;2022-09-12T19:24:42;21.51;65.62
72591;SHT31;60625;51.212;5.952;2022-09-12T19:29:43;21.41;65.91
72591;SHT31;60625;51.212;5.952;2022-09-12T19:34:43;21.25;66.29
72591;SHT31;60625;51.212;5.952;2022-09-12T19:39:44;21.16;66.78
72591;SHT31;60625;51.212;5.952;2022-09-12T19:44:45;21.02;66.92
72591;SHT31;60625;51.212;5.952;2022-09-12T19:49:46;20.88;67.63
72591;SHT31;60625;51.212;5.952;2022-09-12T19:54:47;20.71;69.11
72591;SHT31;60625;51.212;5.952;2022-09-12T19:59:47;20.53;69.25
72591;SHT31;60625;51.212;5.952;2022-09-12T20:04:48;20.55;68.96
72591;SHT31;60625;51.212;5.952;2022-09-12T20:09:50;20.58;68.71
72591;SHT31;60625;51.212;5.952;2022-09-12T20:14:51;20.49;69.29
72591;SHT31;60625;51.212;5.952;2022-09-12T20:19:51;20.39;69.68
72591;SHT31;60625;51.212;5.952;2022-09-12T20:24:52;20.31;69.75
72591;SHT31;60625;51.212;5.952;2022-09-12T20:29:52;20.28;69.77
72591;SHT31;60625;51.212;5.952;2022-09-12T20:34:54;20.32;69.89
72591;SHT31;60625;51.212;5.952;2022-09-12T20:39:55;20.25;70.44
72591;SHT31;60625;51.212;5.952;2022-09-12T20:44:56;20.19;70.43
72591;SHT31;60625;51.212;5.952;2022-09-12T20:49:57;20.10;70.68
72591;SHT31;60625;51.212;5.952;2022-09-12T20:54:57;19.96;71.42
72591;SHT31;60625;51.212;5.952;2022-09-12T20:59:58;19.83;71.99
72591;SHT31;60625;51.212;5.952;2022-09-12T21:04:59;19.76;72.07
72591;SHT31;60625;51.212;5.952;2022-09-12T21:09:59;19.71;72.26
72591;SHT31;60625;51.212;5.952;2022-09-12T21:15:00;19.70;72.21
72591;SHT31;60625;51.212;5.952;2022-09-12T21:20:01;19.63;72.42
72591;SHT31;60625;51.212;5.952;2022-09-12T21:25:01;19.62;72.50
72591;SHT31;60625;51.212;5.952;2022-09-12T21:30:02;19.57;72.75
72591;SHT31;60625;51.212;5.952;2022-09-12T21:35:04;19.55;72.80
72591;SHT31;60625;51.212;5.952;2022-09-12T21:40:06;19.60;72.61
72591;SHT31;60625;51.212;5.952;2022-09-12T21:45:07;19.70;72.42
72591;SHT31;60625;51.212;5.952;2022-09-12T21:50:09;19.62;72.74
72591;SHT31;60625;51.212;5.952;2022-09-12T21:55:10;19.49;73.00
72591;SHT31;60625;51.212;5.952;2022-09-12T22:00:13;19.43;73.25
72591;SHT31;60625;51.212;5.952;2022-09-12T22:05:15;19.53;72.94
72591;SHT31;60625;51.212;5.952;2022-09-12T22:10:16;19.60;72.82
72591;SHT31;60625;51.212;5.952;2022-09-12T22:15:17;19.61;72.81
72591;SHT31;60625;51.212;5.952;2022-09-12T22:20:18;19.61;72.88
72591;SHT31;60625;51.212;5.952;2022-09-12T22:25:19;19.48;73.36
72591;SHT31;60625;51.212;5.952;2022-09-12T22:30:23;19.39;73.58
72591;SHT31;60625;51.212;5.952;2022-09-12T22:35:26;19.39;73.85
72591;SHT31;60625;51.212;5.952;2022-09-12T22:40:27;19.38;74.00
72591;SHT31;60625;51.212;5.952;2022-09-12T22:45:27;19.41;73.99
72591;SHT31;60625;51.212;5.952;2022-09-12T22:50:28;19.44;73.95
72591;SHT31;60625;51.212;5.952;2022-09-12T22:55:28;19.33;74.19
72591;SHT31;60625;51.212;5.952;2022-09-12T23:00:29;19.25;74.39
72591;SHT31;60625;51.212;5.952;2022-09-12T23:05:29;19.23;74.18
72591;SHT31;60625;51.212;5.952;2022-09-12T23:10:33;19.31;73.51
72591;SHT31;60625;51.212;5.952;2022-09-12T23:15:35;19.38;73.13
72591;SHT31;60625;51.212;5.952;2022-09-12T23:20:39;19.28;73.35
72591;SHT31;60625;51.212;5.952;2022-09-12T23:25:39;19.12;73.92
72591;SHT31;60625;51.212;5.952;2022-09-12T23:30:40;19.03;74.00
72591;SHT31;60625;51.212;5.952;2022-09-12T23:35:40;19.00;74.11
72591;SHT31;60625;51.212;5.952;2022-09-12T23:40:42;19.04;73.89
72591;SHT31;60625;51.212;5.952;2022-09-12T23:45:45;19.07;74.11
72591;SHT31;60625;51.212;5.952;2022-09-12T23:50:46;19.07;74.39
72591;SHT31;60625;51.212;5.952;2022-09-12T23:55:48;19.05;74.49
